createdAt,value
2019-05-09T00:00:10.639Z,15.72
2019-05-09T00:01:45.082Z,14.18
2019-05-09T00:03:20.044Z,14.60
2019-05-09T00:04:54.403Z,13.25
2019-05-09T00:06:28.776Z,20.23
2019-05-09T00:08:03.582Z,14.35
2019-05-09T00:09:38.835Z,14.73
2019-05-09T00:11:14.729Z,19.17
2019-05-09T00:12:49.417Z,15.63
2019-05-09T00:14:23.918Z,15.90
2019-05-09T00:15:58.837Z,13.10
2019-05-09T00:17:33.745Z,15.35
2019-05-09T00:19:08.261Z,14.63
2019-05-09T00:20:50.139Z,15.32
2019-05-09T00:22:24.693Z,14.93
2019-05-09T00:23:59.045Z,23.22
2019-05-09T00:25:33.967Z,13.40
2019-05-09T00:27:08.401Z,17.12
2019-05-09T00:28:44.648Z,16.57
2019-05-09T00:30:20.556Z,18.98
2019-05-09T00:31:56.452Z,13.43
2019-05-09T00:33:34.403Z,16.23
2019-05-09T00:35:14.143Z,15.58
2019-05-09T00:36:48.608Z,15.40
2019-05-09T00:38:24.537Z,15.55
2019-05-09T00:39:58.866Z,18.23
2019-05-09T00:41:33.685Z,18.92
2019-05-09T00:43:08.022Z,13.88
2019-05-09T00:44:49.583Z,15.48
2019-05-09T00:46:25.476Z,12.95
2019-05-09T00:48:00.145Z,13.18
2019-05-09T00:49:34.464Z,16.87
2019-05-09T00:51:10.389Z,18.25
2019-05-09T00:52:44.704Z,14.83
2019-05-09T00:54:19.841Z,17.12
2019-05-09T00:55:54.126Z,16.87
2019-05-09T00:57:34.516Z,18.27
2019-05-09T00:59:08.786Z,17.07
2019-05-09T01:00:44.028Z,15.70
2019-05-09T01:02:18.562Z,22.00
2019-05-09T01:03:53.618Z,15.95
2019-05-09T01:05:28.124Z,14.98
2019-05-09T01:07:03.453Z,14.83
2019-05-09T01:08:38.104Z,18.62
2019-05-09T01:10:13.381Z,11.22
2019-05-09T01:11:47.938Z,15.32
2019-05-09T01:13:23.199Z,18.55
2019-05-09T01:14:57.489Z,15.35
2019-05-09T01:16:33.551Z,14.45
2019-05-09T01:18:07.717Z,14.93
2019-05-09T01:19:43.241Z,16.40
2019-05-09T01:21:17.785Z,14.83
2019-05-09T01:22:54.053Z,15.98
2019-05-09T01:24:30.092Z,15.45
2019-05-09T01:26:04.703Z,16.10
2019-05-09T01:27:38.968Z,16.00
2019-05-09T01:29:13.707Z,13.17
2019-05-09T01:30:48.281Z,14.23
2019-05-09T01:32:34.280Z,15.60
2019-05-09T01:34:16.535Z,15.95
2019-05-09T01:35:50.795Z,14.38
2019-05-09T01:37:25.113Z,17.30
2019-05-09T01:38:59.676Z,18.92
2019-05-09T01:40:34.067Z,15.38
2019-05-09T01:42:07.740Z,16.30
2019-05-09T01:43:41.388Z,21.70
2019-05-09T01:45:16.055Z,14.07
2019-05-09T01:46:50.347Z,18.67
2019-05-09T01:48:24.613Z,17.10
2019-05-09T01:50:00.215Z,14.33
2019-05-09T01:51:34.834Z,14.07
2019-05-09T01:53:09.532Z,18.00
2019-05-09T01:54:45.668Z,14.78
2019-05-09T01:56:19.894Z,15.40
2019-05-09T01:57:54.537Z,16.82
2019-05-09T01:59:28.836Z,20.70
2019-05-09T02:01:04.774Z,16.67
2019-05-09T02:02:39.012Z,17.37
2019-05-09T02:04:13.873Z,16.85
2019-05-09T02:05:48.022Z,14.55
2019-05-09T02:07:23.737Z,18.62
2019-05-09T02:08:58.126Z,28.85
2019-05-09T02:10:34.604Z,25.88
2019-05-09T02:12:07.792Z,24.52
2019-05-09T02:13:41.476Z,18.70
2019-05-09T02:15:16.744Z,19.10
2019-05-09T02:16:53.704Z,13.07
2019-05-09T02:18:30.016Z,19.17
2019-05-09T02:20:05.013Z,16.87
2019-05-09T02:21:38.648Z,13.67
2019-05-09T02:23:13.994Z,13.93
2019-05-09T02:24:48.848Z,14.47
2019-05-09T02:26:24.070Z,18.43
2019-05-09T02:27:57.939Z,16.30
2019-05-09T02:29:33.791Z,16.20
2019-05-09T02:31:07.869Z,14.47
2019-05-09T02:32:44.735Z,16.97
2019-05-09T02:34:17.477Z,14.87
2019-05-09T02:35:56.982Z,15.67
2019-05-09T02:37:28.791Z,14.58
2019-05-09T02:39:02.735Z,18.37
2019-05-09T02:40:39.160Z,17.40
2019-05-09T02:42:14.212Z,22.55
2019-05-09T02:43:49.566Z,19.85
2019-05-09T02:45:28.283Z,17.33
2019-05-09T02:47:02.841Z,20.55
2019-05-09T02:48:38.659Z,17.98
2019-05-09T02:50:13.100Z,16.27
2019-05-09T02:51:48.739Z,18.37
2019-05-09T02:53:22.087Z,15.23
2019-05-09T02:54:58.322Z,16.50
2019-05-09T02:56:32.000Z,18.77
2019-05-09T02:58:08.333Z,21.00
2019-05-09T02:59:43.620Z,19.00
2019-05-09T03:01:21.773Z,15.43
2019-05-09T03:02:59.559Z,16.23
2019-05-09T03:04:33.594Z,17.25
2019-05-09T03:06:09.178Z,16.73
2019-05-09T03:07:51.683Z,13.43
2019-05-09T03:09:28.427Z,15.20
2019-05-09T03:11:01.340Z,18.73
2019-05-09T03:12:39.598Z,16.75
2019-05-09T03:14:11.237Z,24.67
2019-05-09T03:15:49.343Z,28.70
2019-05-09T03:17:22.137Z,22.25
2019-05-09T03:18:58.431Z,23.12
2019-05-09T03:20:40.154Z,26.77
2019-05-09T03:22:18.571Z,20.10
2019-05-09T03:23:51.335Z,21.23
2019-05-09T03:25:24.980Z,47.37
2019-05-09T03:27:00.582Z,24.93
2019-05-09T03:28:41.571Z,35.00
2019-05-09T03:30:23.411Z,32.03
2019-05-09T03:32:00.085Z,39.93
2019-05-09T03:33:35.706Z,46.53
2019-05-09T03:35:08.491Z,55.37
2019-05-09T03:36:42.376Z,49.97
2019-05-09T03:38:17.955Z,53.55
2019-05-09T03:39:51.821Z,46.73
2019-05-09T03:41:27.530Z,41.73
2019-05-09T03:43:00.756Z,34.33
2019-05-09T03:44:34.496Z,38.47
2019-05-09T03:46:13.398Z,36.40
2019-05-09T03:47:49.259Z,28.62
2019-05-09T03:49:24.607Z,24.80
2019-05-09T03:50:58.244Z,29.87
2019-05-09T03:52:32.684Z,27.62
2019-05-09T03:54:08.062Z,28.35
2019-05-09T03:55:42.530Z,31.80
2019-05-09T03:57:24.129Z,27.55
2019-05-09T03:58:58.748Z,32.25
2019-05-09T04:00:32.436Z,32.57
2019-05-09T04:02:09.831Z,36.77
2019-05-09T04:03:42.637Z,25.02
2019-05-09T04:05:18.127Z,28.13
2019-05-09T04:06:51.866Z,23.40
2019-05-09T04:08:28.105Z,21.87
2019-05-09T04:10:01.471Z,21.20
2019-05-09T04:11:38.210Z,19.42
2019-05-09T04:13:12.712Z,17.17
2019-05-09T04:14:47.944Z,19.90
2019-05-09T04:16:22.300Z,14.58
2019-05-09T04:17:57.899Z,19.12
2019-05-09T04:19:32.228Z,23.75
2019-05-09T04:21:08.453Z,18.37
2019-05-09T04:22:42.738Z,24.00
2019-05-09T04:24:17.801Z,23.35
2019-05-09T04:26:02.538Z,17.42
2019-05-09T04:27:37.443Z,20.00
2019-05-09T04:29:11.812Z,19.62
2019-05-09T04:30:47.745Z,19.85
2019-05-09T04:32:22.030Z,20.72
2019-05-09T04:33:57.388Z,25.55
2019-05-09T04:35:31.824Z,22.98
2019-05-09T04:37:07.869Z,20.73
2019-05-09T04:38:41.921Z,20.72
2019-05-09T04:40:17.798Z,22.70
2019-05-09T04:41:55.149Z,20.52
2019-05-09T04:43:35.487Z,24.55
2019-05-09T04:45:11.772Z,23.80
2019-05-09T04:46:47.923Z,27.00
2019-05-09T04:48:31.232Z,22.37
2019-05-09T04:50:07.557Z,20.50
2019-05-09T04:51:41.957Z,28.17
2019-05-09T04:53:18.163Z,21.02
2019-05-09T04:54:52.113Z,19.40
2019-05-09T04:56:31.437Z,20.90
2019-05-09T04:58:05.606Z,25.65
2019-05-09T04:59:39.904Z,24.07
2019-05-09T05:01:25.028Z,27.82
2019-05-09T05:02:59.684Z,29.72
2019-05-09T05:04:33.893Z,29.60
2019-05-09T05:06:08.122Z,34.00
2019-05-09T05:07:42.372Z,31.87
2019-05-09T05:09:21.084Z,30.43
2019-05-09T05:10:52.984Z,25.35
2019-05-09T05:12:27.771Z,22.00
2019-05-09T05:14:02.305Z,20.08
2019-05-09T05:15:37.788Z,23.50
2019-05-09T05:17:12.100Z,21.65
2019-05-09T05:18:47.808Z,16.67
2019-05-09T05:20:23.760Z,17.77
2019-05-09T05:21:59.909Z,17.87
2019-05-09T05:23:41.218Z,23.22
2019-05-09T05:25:17.725Z,25.15
2019-05-09T05:26:51.427Z,16.77
2019-05-09T05:28:27.853Z,19.02
2019-05-09T05:30:02.185Z,18.27
2019-05-09T05:31:38.651Z,14.63
2019-05-09T05:33:13.988Z,15.50
2019-05-09T05:35:02.565Z,21.25
2019-05-09T05:36:38.344Z,14.73
2019-05-09T05:38:12.718Z,19.10
2019-05-09T05:39:47.754Z,17.80
2019-05-09T05:41:22.573Z,14.70
2019-05-09T05:42:58.534Z,15.83
2019-05-09T05:44:32.848Z,13.15
2019-05-09T05:46:18.312Z,14.35
2019-05-09T05:47:54.762Z,12.78
2019-05-09T05:49:28.990Z,16.62
2019-05-09T05:51:03.213Z,19.20
2019-05-09T05:52:37.621Z,21.07
2019-05-09T05:54:12.207Z,21.45
2019-05-09T05:55:50.493Z,18.82
2019-05-09T05:57:22.314Z,16.82
2019-05-09T05:58:58.076Z,18.40
2019-05-09T06:00:32.625Z,18.45
2019-05-09T06:02:08.584Z,25.77
2019-05-09T06:03:42.775Z,26.20
2019-05-09T06:05:18.632Z,21.82
2019-05-09T06:06:53.251Z,23.57
2019-05-09T06:08:27.685Z,20.62
2019-05-09T06:10:02.164Z,21.73
2019-05-09T06:11:38.453Z,23.47
2019-05-09T06:13:12.642Z,25.55
2019-05-09T06:14:48.089Z,25.52
2019-05-09T06:16:22.500Z,19.87
2019-05-09T06:17:57.963Z,24.87
2019-05-09T06:19:32.752Z,18.57
2019-05-09T06:21:08.840Z,21.05
2019-05-09T06:22:42.905Z,19.07
2019-05-09T06:24:17.692Z,16.10
2019-05-09T06:25:52.459Z,18.25
2019-05-09T06:27:27.512Z,17.25
2019-05-09T06:29:02.223Z,34.08
2019-05-09T06:30:40.889Z,18.90
2019-05-09T06:32:12.675Z,15.78
2019-05-09T06:33:53.192Z,18.10
2019-05-09T06:35:25.036Z,17.77
2019-05-09T06:37:02.970Z,14.68
2019-05-09T06:38:37.564Z,17.70
2019-05-09T06:40:14.378Z,13.62
2019-05-09T06:41:48.682Z,12.65
2019-05-09T06:43:24.556Z,12.58
2019-05-09T06:45:00.930Z,12.25
2019-05-09T06:46:42.540Z,12.93
2019-05-09T06:48:18.072Z,9.78
2019-05-09T06:49:57.445Z,14.30
2019-05-09T06:51:32.155Z,12.78
2019-05-09T06:53:08.033Z,12.10
2019-05-09T06:54:42.497Z,12.53
2019-05-09T06:56:17.810Z,13.80
2019-05-09T06:57:52.786Z,9.30
2019-05-09T06:59:28.345Z,9.75
2019-05-09T07:01:08.473Z,12.63
2019-05-09T07:02:44.337Z,12.63
2019-05-09T07:04:29.891Z,12.88
2019-05-09T07:06:21.858Z,19.02
2019-05-09T07:08:00.420Z,14.63
2019-05-09T07:09:39.656Z,9.23
2019-05-09T07:11:13.947Z,12.60
2019-05-09T07:12:48.714Z,19.05
2019-05-09T07:14:37.993Z,13.60
2019-05-09T07:16:09.495Z,11.18
2019-05-09T07:17:44.053Z,12.47
2019-05-09T07:19:18.306Z,17.48
2019-05-09T07:20:52.594Z,15.15
2019-05-09T07:22:28.800Z,11.83
2019-05-09T07:24:03.061Z,13.45
2019-05-09T07:25:44.940Z,15.83
2019-05-09T07:27:19.149Z,9.83
2019-05-09T07:28:53.818Z,13.40
2019-05-09T07:30:32.849Z,9.60
2019-05-09T07:32:14.815Z,12.80
2019-05-09T07:33:50.672Z,12.03
2019-05-09T07:35:27.665Z,11.10
2019-05-09T07:37:01.149Z,16.32
2019-05-09T07:38:35.469Z,10.88
2019-05-09T07:40:09.669Z,8.65
2019-05-09T07:41:43.977Z,8.60
2019-05-09T07:43:18.200Z,14.23
2019-05-09T07:44:54.019Z,13.95
2019-05-09T07:46:29.799Z,6.72
2019-05-09T07:48:04.382Z,11.03
2019-05-09T07:49:38.639Z,11.80
2019-05-09T07:51:13.004Z,10.82
2019-05-09T07:52:47.829Z,5.75
2019-05-09T07:54:25.649Z,9.30
2019-05-09T07:55:58.516Z,8.38
2019-05-09T07:57:32.740Z,6.47
2019-05-09T07:59:07.691Z,7.67
2019-05-09T08:00:42.241Z,7.33
2019-05-09T08:02:17.667Z,9.68
2019-05-09T08:03:52.272Z,12.03
2019-05-09T08:05:29.049Z,8.58
2019-05-09T08:07:05.023Z,8.83
2019-05-09T08:08:39.233Z,8.08
2019-05-09T08:10:13.543Z,5.55
2019-05-09T08:11:48.327Z,13.15
2019-05-09T08:13:23.411Z,9.95
2019-05-09T08:15:10.258Z,9.75
2019-05-09T08:16:33.551Z,9.50
2019-05-09T08:18:08.694Z,6.83
2019-05-09T08:19:43.624Z,6.45
2019-05-09T08:21:18.165Z,7.33
2019-05-09T08:22:58.657Z,8.25
2019-05-09T08:24:28.672Z,10.00
2019-05-09T08:26:04.601Z,6.85
2019-05-09T08:27:38.883Z,6.37
2019-05-09T08:29:13.093Z,6.00
2019-05-09T08:30:48.399Z,9.83
2019-05-09T08:32:23.219Z,5.65
2019-05-09T08:33:59.321Z,4.22
2019-05-09T08:35:33.287Z,4.20
2019-05-09T08:37:08.300Z,3.30
2019-05-09T08:38:42.845Z,4.78
2019-05-09T08:40:18.328Z,6.28
2019-05-09T08:41:52.911Z,6.97
2019-05-09T08:43:28.333Z,3.40
2019-05-09T08:45:03.237Z,3.33
2019-05-09T08:46:37.837Z,4.00
2019-05-09T08:48:12.220Z,5.20
2019-05-09T08:49:50.781Z,2.90
2019-05-09T08:51:47.393Z,3.98
2019-05-09T08:53:11.687Z,5.92
2019-05-09T08:54:48.568Z,5.12
2019-05-09T08:56:23.062Z,3.00
2019-05-09T08:57:58.629Z,3.60
2019-05-09T08:59:33.339Z,4.53
2019-05-09T09:01:10.117Z,5.78
2019-05-09T09:02:43.488Z,3.50
2019-05-09T09:04:18.993Z,3.98
2019-05-09T09:05:53.669Z,5.10
2019-05-09T09:07:29.665Z,3.22
2019-05-09T09:09:05.273Z,5.03
2019-05-09T09:10:39.875Z,4.30
2019-05-09T09:12:25.977Z,4.37
2019-05-09T09:13:50.016Z,4.15
2019-05-09T09:15:46.452Z,4.30
2019-05-09T09:17:00.292Z,4.22
2019-05-09T09:18:34.549Z,5.85
2019-05-09T09:20:08.853Z,7.00
2019-05-09T09:21:46.666Z,3.45
2019-05-09T09:23:20.489Z,3.90
2019-05-09T09:24:58.455Z,9.73
2019-05-09T09:26:32.233Z,5.00
2019-05-09T09:28:08.846Z,3.65
2019-05-09T09:29:42.889Z,4.40
2019-05-09T09:31:18.025Z,3.67
2019-05-09T09:32:53.624Z,8.03
2019-05-09T09:34:30.046Z,4.95
2019-05-09T09:36:09.247Z,4.47
2019-05-09T09:37:48.593Z,14.60
2019-05-09T09:39:19.301Z,3.52
2019-05-09T09:40:53.512Z,4.80
2019-05-09T09:42:28.406Z,6.05
2019-05-09T09:44:04.465Z,5.03
2019-05-09T09:45:38.686Z,4.15
2019-05-09T09:47:12.901Z,7.85
2019-05-09T09:48:48.173Z,4.50
2019-05-09T09:50:22.522Z,3.20
2019-05-09T09:51:58.154Z,3.40
2019-05-09T09:53:32.590Z,3.83
2019-05-09T09:55:09.010Z,3.37
2019-05-09T09:56:47.720Z,4.75
2019-05-09T09:58:21.014Z,4.17
2019-05-09T09:59:58.401Z,4.45
2019-05-09T10:01:37.966Z,4.05
2019-05-09T10:03:11.854Z,3.45
2019-05-09T10:04:46.062Z,4.08
2019-05-09T10:06:20.351Z,5.47
2019-05-09T10:07:54.888Z,7.42
2019-05-09T10:09:29.100Z,4.42
2019-05-09T10:11:03.385Z,5.10
2019-05-09T10:12:43.558Z,4.30
2019-05-09T10:14:15.405Z,6.10
2019-05-09T10:16:25.208Z,5.85
2019-05-09T10:17:47.755Z,5.53
2019-05-09T10:19:33.361Z,5.65
2019-05-09T10:21:09.278Z,4.65
2019-05-09T10:22:46.833Z,6.72
2019-05-09T10:24:20.266Z,4.87
2019-05-09T10:25:54.800Z,3.60
2019-05-09T10:27:29.194Z,7.37
2019-05-09T10:29:03.462Z,5.50
2019-05-09T10:30:38.388Z,6.10
2019-05-09T10:32:14.517Z,3.33
2019-05-09T10:33:48.736Z,3.40
2019-05-09T10:35:23.803Z,3.30
2019-05-09T10:36:58.376Z,4.70
2019-05-09T10:38:33.073Z,5.08
2019-05-09T10:40:07.429Z,6.03
2019-05-09T10:41:41.713Z,8.33
2019-05-09T10:43:35.551Z,3.08
2019-05-09T10:45:07.530Z,4.97
2019-05-09T10:46:56.772Z,5.95
2019-05-09T10:48:28.155Z,4.40
2019-05-09T10:50:01.199Z,4.65
2019-05-09T10:51:35.728Z,3.27
2019-05-09T10:53:09.937Z,3.83
2019-05-09T10:54:44.192Z,4.83
2019-05-09T10:56:19.045Z,3.83
2019-05-09T10:57:53.901Z,4.00
2019-05-09T10:59:28.116Z,3.80
2019-05-09T11:01:02.451Z,4.17
2019-05-09T11:02:36.675Z,3.85
2019-05-09T11:04:11.233Z,4.03
2019-05-09T11:05:45.447Z,4.10
2019-05-09T11:07:19.709Z,3.83
2019-05-09T11:08:53.911Z,5.08
2019-05-09T11:10:31.901Z,3.40
2019-05-09T11:12:04.652Z,3.35
2019-05-09T11:13:40.367Z,3.25
2019-05-09T11:15:14.660Z,5.25
2019-05-09T11:16:54.233Z,8.03
2019-05-09T11:18:24.914Z,5.92
2019-05-09T11:19:59.169Z,4.28
2019-05-09T11:21:33.460Z,4.78
2019-05-09T11:23:08.264Z,4.20
2019-05-09T11:24:46.651Z,5.03
2019-05-09T11:26:18.633Z,4.75
2019-05-09T11:28:06.667Z,4.00
2019-05-09T11:29:29.017Z,3.98
2019-05-09T11:31:03.304Z,4.95
2019-05-09T11:32:38.607Z,4.47
2019-05-09T11:34:12.888Z,4.58
2019-05-09T11:35:48.047Z,4.28
2019-05-09T11:37:22.502Z,4.12
2019-05-09T11:39:00.167Z,4.10
2019-05-09T11:40:32.651Z,6.20
2019-05-09T11:42:07.219Z,3.87
2019-05-09T11:43:41.477Z,5.00
2019-05-09T11:45:17.716Z,5.30
2019-05-09T11:46:51.638Z,5.70
2019-05-09T11:48:28.408Z,6.17
2019-05-09T11:50:02.363Z,6.10
2019-05-09T11:51:38.106Z,6.30
2019-05-09T11:53:12.335Z,5.65
2019-05-09T11:54:48.193Z,4.47
2019-05-09T11:56:22.558Z,6.65
2019-05-09T11:57:59.067Z,8.25
2019-05-09T11:59:34.410Z,3.95
2019-05-09T12:01:08.945Z,4.40
2019-05-09T12:02:43.205Z,5.17
2019-05-09T12:04:18.763Z,4.85
2019-05-09T12:05:53.228Z,4.67
2019-05-09T12:07:28.815Z,5.10
2019-05-09T12:09:05.309Z,3.22
2019-05-09T12:10:39.507Z,5.42
2019-05-09T12:12:13.786Z,5.45
2019-05-09T12:13:48.905Z,4.28
2019-05-09T12:15:24.388Z,4.10
2019-05-09T12:16:58.644Z,3.65
2019-05-09T12:18:32.853Z,6.37
2019-05-09T12:20:12.597Z,4.53
2019-05-09T12:21:47.762Z,5.05
2019-05-09T12:23:20.129Z,6.00
2019-05-09T12:24:54.541Z,4.28
2019-05-09T12:26:29.483Z,2.87
2019-05-09T12:28:03.751Z,5.67
2019-05-09T12:29:38.677Z,5.40
2019-05-09T12:31:13.383Z,3.37
2019-05-09T12:32:48.004Z,4.50
2019-05-09T12:34:22.206Z,2.95
2019-05-09T12:35:59.307Z,3.90
2019-05-09T12:37:33.181Z,4.72
2019-05-09T12:39:09.677Z,3.90
2019-05-09T12:40:43.885Z,5.05
2019-05-09T12:42:18.777Z,4.35
2019-05-09T12:43:53.292Z,5.78
2019-05-09T12:45:27.802Z,3.10
2019-05-09T12:47:04.897Z,3.55
2019-05-09T12:48:39.144Z,4.25
2019-05-09T12:50:13.622Z,4.87
2019-05-09T12:51:48.045Z,5.42
2019-05-09T12:53:22.272Z,5.33
2019-05-09T12:54:58.257Z,4.12
2019-05-09T12:56:32.372Z,4.70
2019-05-09T12:58:09.785Z,4.58
2019-05-09T12:59:48.976Z,4.20
2019-05-09T13:01:20.071Z,3.62
2019-05-09T13:02:54.339Z,3.75
2019-05-09T13:04:28.854Z,9.00
2019-05-09T13:06:03.165Z,3.35
2019-05-09T13:07:40.009Z,4.40
2019-05-09T13:09:13.469Z,4.22
2019-05-09T13:10:48.835Z,7.20
2019-05-09T13:12:23.344Z,7.90
2019-05-09T13:13:58.128Z,8.73
2019-05-09T13:15:34.021Z,5.17
2019-05-09T13:17:17.828Z,4.78
2019-05-09T13:19:05.376Z,3.22
2019-05-09T13:20:39.626Z,6.67
2019-05-09T13:22:13.858Z,5.97
2019-05-09T13:23:52.225Z,4.83
2019-05-09T13:25:24.372Z,7.37
2019-05-09T13:26:58.655Z,4.42
2019-05-09T13:28:32.838Z,5.87
2019-05-09T13:30:08.555Z,3.67
2019-05-09T13:31:42.753Z,3.67
2019-05-09T13:33:18.884Z,7.85
2019-05-09T13:34:52.910Z,7.33
2019-05-09T13:36:28.356Z,3.62
2019-05-09T13:38:02.958Z,8.00
2019-05-09T13:39:39.459Z,4.55
2019-05-09T13:41:13.000Z,6.67
2019-05-09T13:42:49.082Z,3.85
2019-05-09T13:44:23.411Z,3.98
2019-05-09T13:45:58.801Z,4.25
2019-05-09T13:47:33.030Z,5.87
2019-05-09T13:49:12.570Z,5.03
2019-05-09T13:50:43.502Z,4.67
2019-05-09T13:52:18.053Z,5.17
2019-05-09T13:53:53.765Z,4.10
2019-05-09T13:55:28.679Z,6.90
2019-05-09T13:57:02.889Z,4.60
2019-05-09T13:58:38.428Z,3.47
2019-05-09T14:00:12.908Z,5.17
2019-05-09T14:01:48.005Z,3.22
2019-05-09T14:03:22.294Z,4.55
2019-05-09T14:04:58.397Z,4.25
2019-05-09T14:06:32.518Z,8.35
2019-05-09T14:08:09.126Z,6.33
2019-05-09T14:09:42.922Z,10.10
2019-05-09T14:11:19.356Z,3.95
2019-05-09T14:13:05.635Z,6.80
2019-05-09T14:14:29.436Z,7.03
2019-05-09T14:16:18.889Z,4.62
2019-05-09T14:17:49.168Z,5.42
2019-05-09T14:19:31.736Z,7.97
2019-05-09T14:20:51.782Z,8.58
2019-05-09T14:22:26.068Z,6.87
2019-05-09T14:24:10.802Z,6.12
2019-05-09T14:25:38.138Z,5.78
2019-05-09T14:27:12.315Z,3.27
2019-05-09T14:28:48.870Z,6.22
2019-05-09T14:30:22.448Z,4.55
2019-05-09T14:31:56.733Z,4.47
2019-05-09T14:33:31.096Z,3.85
2019-05-09T14:35:08.512Z,3.27
2019-05-09T14:36:45.696Z,7.20
2019-05-09T14:38:19.246Z,5.08
2019-05-09T14:39:58.701Z,7.97
2019-05-09T14:41:29.938Z,8.43
2019-05-09T14:43:04.208Z,5.83
2019-05-09T14:44:38.436Z,6.62
2019-05-09T14:46:12.832Z,12.37
2019-05-09T14:47:47.116Z,4.65
2019-05-09T14:49:21.460Z,11.12
2019-05-09T14:50:58.175Z,7.33
2019-05-09T14:52:31.745Z,7.97
2019-05-09T14:54:08.367Z,6.75
2019-05-09T14:55:43.298Z,5.90
2019-05-09T14:57:17.864Z,5.90
2019-05-09T14:58:52.357Z,4.62
2019-05-09T15:00:26.772Z,8.75
2019-05-09T15:02:00.984Z,3.87
2019-05-09T15:03:35.263Z,3.90
2019-05-09T15:05:09.908Z,6.08
2019-05-09T15:06:44.125Z,6.20
2019-05-09T15:08:18.353Z,6.08
2019-05-09T15:09:56.809Z,4.47
2019-05-09T15:11:31.925Z,4.50
2019-05-09T15:13:07.798Z,5.83
2019-05-09T15:14:42.026Z,5.92
2019-05-09T15:16:18.481Z,4.15
2019-05-09T15:17:52.419Z,6.58
2019-05-09T15:19:28.741Z,13.13
2019-05-09T15:21:02.728Z,9.85
2019-05-09T15:22:38.666Z,7.58
2019-05-09T15:24:13.009Z,9.35
2019-05-09T15:25:48.045Z,8.35
2019-05-09T15:27:22.746Z,6.08
2019-05-09T15:28:57.780Z,8.50
2019-05-09T15:30:32.734Z,14.53
2019-05-09T15:32:12.077Z,7.37
2019-05-09T15:33:42.878Z,6.25
2019-05-09T15:35:18.276Z,9.15
2019-05-09T15:36:53.026Z,15.08
2019-05-09T15:38:29.015Z,13.20
2019-05-09T15:40:03.424Z,8.80
2019-05-09T15:41:38.446Z,7.28
2019-05-09T15:43:13.211Z,7.03
2019-05-09T15:44:49.356Z,8.98
2019-05-09T15:46:27.762Z,7.87
2019-05-09T15:48:01.122Z,9.68
2019-05-09T15:49:38.364Z,22.62
2019-05-09T15:51:11.828Z,22.75
2019-05-09T15:53:08.410Z,40.20
2019-05-09T15:54:43.531Z,29.57
2019-05-09T15:56:18.737Z,22.13
2019-05-09T15:57:53.236Z,29.80
2019-05-09T15:59:28.226Z,32.38
2019-05-09T16:01:02.809Z,42.58
2019-05-09T16:02:39.082Z,39.03
2019-05-09T16:04:13.577Z,33.42
2019-05-09T16:05:48.062Z,21.20
2019-05-09T16:07:22.726Z,28.70
2019-05-09T16:08:58.575Z,16.90
2019-05-09T16:10:32.960Z,12.07
2019-05-09T16:12:07.806Z,8.93
2019-05-09T16:13:42.416Z,11.83
2019-05-09T16:15:18.393Z,15.75
2019-05-09T16:16:52.929Z,25.75
2019-05-09T16:18:28.804Z,24.70
2019-05-09T16:20:08.420Z,20.80
2019-05-09T16:21:42.696Z,16.70
2019-05-09T16:23:18.437Z,17.15
2019-05-09T16:24:52.889Z,20.60
2019-05-09T16:26:29.129Z,18.57
2019-05-09T16:28:03.495Z,23.90
2019-05-09T16:29:38.297Z,25.92
2019-05-09T16:31:13.458Z,18.07
2019-05-09T16:32:49.640Z,21.23
2019-05-09T16:34:25.332Z,20.05
2019-05-09T16:36:00.955Z,18.52
2019-05-09T16:37:52.533Z,17.37
2019-05-09T16:39:11.366Z,18.92
2019-05-09T16:40:47.918Z,19.73
2019-05-09T16:42:21.947Z,18.65
2019-05-09T16:43:58.280Z,26.35
2019-05-09T16:45:32.197Z,13.50
2019-05-09T16:47:08.325Z,22.80
2019-05-09T16:48:42.442Z,27.67
2019-05-09T16:50:17.946Z,20.60
2019-05-09T16:51:53.443Z,16.62
2019-05-09T16:53:28.005Z,19.30
2019-05-09T16:55:03.878Z,31.85
2019-05-09T16:56:38.356Z,19.15
2019-05-09T16:58:14.377Z,21.75
2019-05-09T16:59:49.745Z,25.62
2019-05-09T17:01:23.956Z,29.15
2019-05-09T17:02:58.191Z,28.00
2019-05-09T17:04:33.921Z,29.25
2019-05-09T17:06:08.293Z,26.85
2019-05-09T17:07:43.965Z,16.05
2019-05-09T17:09:18.224Z,17.37
2019-05-09T17:10:53.468Z,16.23
2019-05-09T17:12:27.888Z,16.23
2019-05-09T17:14:02.179Z,16.42
2019-05-09T17:15:38.952Z,14.43
2019-05-09T17:17:13.360Z,13.50
2019-05-09T17:18:48.633Z,15.85
2019-05-09T17:20:33.973Z,18.55
2019-05-09T17:22:09.853Z,19.70
2019-05-09T17:23:47.637Z,21.02
2019-05-09T17:25:21.788Z,22.05
2019-05-09T17:26:57.976Z,22.10
2019-05-09T17:28:32.352Z,19.35
2019-05-09T17:30:08.601Z,24.50
2019-05-09T17:31:43.013Z,21.57
2019-05-09T17:33:17.416Z,21.70
2019-05-09T17:34:51.652Z,26.60
2019-05-09T17:36:28.413Z,22.90
2019-05-09T17:38:02.178Z,15.88
2019-05-09T17:39:38.444Z,16.57
2019-05-09T17:41:12.301Z,17.23
2019-05-09T17:42:47.134Z,17.75
2019-05-09T17:44:21.432Z,15.55
2019-05-09T17:45:58.172Z,16.65
2019-05-09T17:47:31.565Z,16.45
2019-05-09T17:49:08.199Z,14.90
2019-05-09T17:50:42.070Z,13.80
2019-05-09T17:52:18.265Z,16.73
2019-05-09T17:53:52.403Z,16.95
2019-05-09T17:55:26.829Z,16.52
2019-05-09T17:57:01.065Z,15.30
2019-05-09T17:58:37.847Z,17.25
2019-05-09T18:00:13.044Z,14.65
2019-05-09T18:01:48.235Z,13.30
2019-05-09T18:03:22.838Z,17.12
2019-05-09T18:04:58.252Z,15.20
2019-05-09T18:06:32.690Z,17.77
2019-05-09T18:08:08.792Z,18.85
2019-05-09T18:09:43.086Z,24.05
2019-05-09T18:11:17.550Z,25.57
2019-05-09T18:12:52.061Z,29.12
2019-05-09T18:14:27.664Z,31.12
2019-05-09T18:16:02.783Z,27.35
2019-05-09T18:17:38.283Z,60.58
2019-05-09T18:19:13.014Z,34.23
2019-05-09T18:20:49.038Z,34.98
2019-05-09T18:22:23.245Z,29.75
2019-05-09T18:23:58.679Z,26.25
2019-05-09T18:25:33.208Z,28.75
2019-05-09T18:27:10.163Z,26.93
2019-05-09T18:28:44.480Z,37.88
2019-05-09T18:30:19.346Z,38.15
2019-05-09T18:32:03.022Z,39.95
2019-05-09T18:33:41.731Z,33.38
2019-05-09T18:35:17.684Z,27.15
2019-05-09T18:36:51.980Z,27.27
2019-05-09T18:38:29.203Z,30.75
2019-05-09T18:40:04.507Z,33.42
2019-05-09T18:41:38.724Z,27.42
2019-05-09T18:43:12.996Z,32.88
2019-05-09T18:44:47.670Z,27.48
2019-05-09T18:46:22.129Z,28.65
2019-05-09T18:47:58.027Z,24.63
2019-05-09T18:49:32.571Z,32.40
2019-05-09T18:51:06.959Z,37.78
2019-05-09T18:52:59.913Z,103.30
2019-05-09T18:54:34.119Z,58.20
2019-05-09T18:56:08.531Z,36.75
2019-05-09T18:57:42.786Z,25.40
2019-05-09T18:59:18.870Z,28.62
2019-05-09T19:00:53.179Z,32.50
2019-05-09T19:02:31.326Z,35.95
2019-05-09T19:04:06.937Z,20.00
2019-05-09T19:05:47.032Z,17.92
2019-05-09T19:07:22.892Z,26.52
2019-05-09T19:08:57.413Z,22.40
2019-05-09T19:10:31.657Z,37.10
2019-05-09T19:12:06.257Z,32.88
2019-05-09T19:13:40.505Z,29.65
2019-05-09T19:15:32.876Z,38.55
2019-05-09T19:17:25.337Z,33.98
2019-05-09T19:19:04.258Z,23.83
2019-05-09T19:20:41.703Z,26.42
2019-05-09T19:22:22.332Z,26.05
2019-05-09T19:23:52.105Z,25.05
2019-05-09T19:25:26.368Z,22.37
2019-05-09T19:27:00.700Z,26.42
2019-05-09T19:28:35.023Z,41.80
2019-05-09T19:30:10.129Z,40.55
2019-05-09T19:31:44.488Z,30.80
2019-05-09T19:33:18.737Z,28.98
2019-05-09T19:34:52.946Z,26.42
2019-05-09T19:36:27.921Z,21.95
2019-05-09T19:38:02.201Z,22.32
2019-05-09T19:39:36.509Z,22.77
2019-05-09T19:41:10.798Z,29.92
2019-05-09T19:42:48.240Z,33.45
2019-05-09T19:44:22.461Z,27.87
2019-05-09T19:45:56.748Z,26.02
2019-05-09T19:47:31.134Z,26.25
2019-05-09T19:49:05.933Z,23.25
2019-05-09T19:50:40.343Z,22.73
2019-05-09T19:52:14.706Z,30.88
2019-05-09T19:53:48.944Z,21.62
2019-05-09T19:55:23.648Z,19.77
2019-05-09T19:56:57.945Z,18.73
2019-05-09T19:58:32.317Z,20.30
2019-05-09T20:00:08.833Z,23.38
2019-05-09T20:01:43.508Z,21.40
2019-05-09T20:03:19.192Z,19.70
2019-05-09T20:04:55.115Z,21.07
2019-05-09T20:06:29.338Z,22.22
2019-05-09T20:08:04.066Z,22.15
2019-05-09T20:09:42.898Z,23.18
2019-05-09T20:11:34.028Z,23.75
2019-05-09T20:13:10.358Z,22.65
2019-05-09T20:14:47.394Z,21.85
2019-05-09T20:16:21.697Z,23.18
2019-05-09T20:17:55.941Z,21.55
2019-05-09T20:19:30.462Z,21.82
2019-05-09T20:21:04.729Z,24.95
2019-05-09T20:22:51.950Z,25.75
2019-05-09T20:24:14.845Z,20.70
2019-05-09T20:25:49.345Z,25.60
2019-05-09T20:27:25.313Z,25.55
2019-05-09T20:28:59.584Z,25.72
2019-05-09T20:30:33.841Z,27.07
2019-05-09T20:32:08.538Z,24.98
2019-05-09T20:33:42.748Z,27.82
2019-05-09T20:35:17.043Z,22.60
2019-05-09T20:36:51.358Z,24.12
2019-05-09T20:38:27.098Z,25.08
2019-05-09T20:40:01.554Z,24.35
2019-05-09T20:41:38.959Z,22.93
2019-05-09T20:43:13.441Z,25.30
2019-05-09T20:44:48.093Z,26.85
2019-05-09T20:46:22.513Z,24.18